createdAt,value
2017-09-09T00:02:11.898Z,16.70
2017-09-09T00:04:40.743Z,16.70
2017-09-09T00:07:08.818Z,16.70
2017-09-09T00:09:36.923Z,16.70
2017-09-09T00:12:05.035Z,16.60
2017-09-09T00:14:33.117Z,16.60
2017-09-09T00:19:30.565Z,16.60
2017-09-09T00:21:59.405Z,16.60
2017-09-09T00:24:27.478Z,16.60
2017-09-09T00:26:55.577Z,16.60
2017-09-09T00:29:24.444Z,16.60
2017-09-09T00:31:52.538Z,16.60
2017-09-09T00:34:20.606Z,16.60
2017-09-09T00:36:49.471Z,16.60
2017-09-09T00:39:18.306Z,16.60
2017-09-09T00:41:47.162Z,16.60
2017-09-09T00:44:15.238Z,16.50
2017-09-09T00:46:43.353Z,16.50
2017-09-09T00:49:11.426Z,16.50
2017-09-09T00:51:39.506Z,16.50
2017-09-09T00:54:07.594Z,16.40
2017-09-09T00:56:35.670Z,16.40
2017-09-09T00:59:03.770Z,16.40
2017-09-09T01:01:31.842Z,16.30
2017-09-09T01:04:00.677Z,16.40
2017-09-09T01:06:28.782Z,16.40
2017-09-09T01:08:56.854Z,16.40
2017-09-09T01:11:24.928Z,16.40
2017-09-09T01:13:53.018Z,16.40
2017-09-09T01:16:21.094Z,16.40
2017-09-09T01:18:49.233Z,16.30
2017-09-09T01:21:18.070Z,16.30
2017-09-09T01:23:46.910Z,16.20
2017-09-09T01:26:15.782Z,16.30
2017-09-09T01:28:43.854Z,16.30
2017-09-09T01:31:11.925Z,16.30
2017-09-09T01:36:10.168Z,16.30
2017-09-09T01:38:38.243Z,16.30
2017-09-09T01:41:06.348Z,16.30
2017-09-09T01:43:35.211Z,16.30
2017-09-09T01:46:03.292Z,16.30
2017-09-09T01:48:32.160Z,16.30
2017-09-09T01:51:00.263Z,16.30
2017-09-09T01:53:29.123Z,16.40
2017-09-09T01:55:57.260Z,16.30
2017-09-09T01:58:26.444Z,16.30
2017-09-09T02:00:54.519Z,16.30
2017-09-09T02:03:22.611Z,16.30
2017-09-09T02:05:51.454Z,16.20
2017-09-09T02:08:19.555Z,16.30
2017-09-09T02:10:47.631Z,16.30
2017-09-09T02:13:15.774Z,16.20
2017-09-09T02:15:44.614Z,16.20
2017-09-09T02:18:12.687Z,16.20
2017-09-09T02:20:40.787Z,16.20
2017-09-09T02:23:08.868Z,16.20
2017-09-09T02:25:36.962Z,16.20
2017-09-09T02:28:05.432Z,16.20
2017-09-09T02:30:33.936Z,16.20
2017-09-09T02:33:03.147Z,16.20
2017-09-09T02:35:31.620Z,16.20
2017-09-09T02:40:29.055Z,16.20
2017-09-09T02:42:57.556Z,16.30
2017-09-09T02:45:26.398Z,16.20
2017-09-09T02:47:54.482Z,16.20
2017-09-09T02:50:22.575Z,16.30
2017-09-09T02:52:51.052Z,16.30
2017-09-09T02:55:19.178Z,16.30
2017-09-09T02:57:47.251Z,16.30
2017-09-09T03:00:15.322Z,16.20
2017-09-09T03:02:43.438Z,16.20
2017-09-09T03:05:12.656Z,16.20
2017-09-09T03:07:41.523Z,16.20
2017-09-09T03:10:09.998Z,16.20
2017-09-09T03:12:38.839Z,16.20
2017-09-09T03:15:06.944Z,16.20
2017-09-09T03:17:35.019Z,16.20
2017-09-09T03:20:03.508Z,16.20
2017-09-09T03:22:31.611Z,16.10
2017-09-09T03:25:00.116Z,16.10
2017-09-09T03:27:28.954Z,16.10
2017-09-09T03:29:57.127Z,16.10
2017-09-09T03:32:25.306Z,16.10
2017-09-09T03:34:53.379Z,16.00
2017-09-09T03:37:21.482Z,15.90
2017-09-09T03:39:50.323Z,15.90
2017-09-09T03:42:18.426Z,15.90
2017-09-09T03:44:47.275Z,15.90
2017-09-09T03:47:15.351Z,15.90
2017-09-09T03:49:43.452Z,15.90
2017-09-09T03:52:11.529Z,15.80
2017-09-09T03:54:40.031Z,15.70
2017-09-09T03:57:09.244Z,15.60
2017-09-09T03:59:38.851Z,15.60
2017-09-09T04:02:06.935Z,15.60
2017-09-09T04:04:35.015Z,15.60
2017-09-09T04:07:03.123Z,15.50
2017-09-09T04:09:31.204Z,15.50
2017-09-09T04:11:59.283Z,15.40
2017-09-09T04:14:27.383Z,15.40
2017-09-09T04:16:56.991Z,15.40
2017-09-09T04:19:25.847Z,15.30
2017-09-09T04:21:53.923Z,15.30
2017-09-09T04:24:22.023Z,15.20
2017-09-09T04:26:50.871Z,15.10
2017-09-09T04:29:19.735Z,15.10
2017-09-09T04:31:47.815Z,15.10
2017-09-09T04:34:15.911Z,15.00
2017-09-09T04:36:44.014Z,14.90
2017-09-09T04:39:12.859Z,14.90
2017-09-09T04:41:40.934Z,14.80
2017-09-09T04:44:09.034Z,14.70
2017-09-09T04:46:37.115Z,14.70
2017-09-09T04:49:05.228Z,14.70
2017-09-09T04:51:33.307Z,14.70
2017-09-09T04:54:01.778Z,14.60
2017-09-09T04:56:29.908Z,14.60
2017-09-09T04:58:58.359Z,14.50
2017-09-09T05:01:26.438Z,14.50
2017-09-09T05:03:54.546Z,14.50
2017-09-09T05:06:23.394Z,14.50
2017-09-09T05:08:51.462Z,14.50
2017-09-09T05:11:20.003Z,14.40
2017-09-09T05:13:48.843Z,14.40
2017-09-09T05:16:16.923Z,14.40
2017-09-09T05:18:45.023Z,14.30
2017-09-09T05:21:13.499Z,14.30
2017-09-09T05:23:42.370Z,14.30
2017-09-09T05:26:10.451Z,14.40
2017-09-09T05:28:38.522Z,14.30
2017-09-09T05:31:06.631Z,14.30
2017-09-09T05:33:35.855Z,14.30
2017-09-09T05:36:03.938Z,14.30
2017-09-09T05:38:32.051Z,14.30
2017-09-09T05:43:30.632Z,14.30
2017-09-09T05:45:58.735Z,14.20
2017-09-09T05:48:27.580Z,14.30
2017-09-09T05:50:56.443Z,14.30
2017-09-09T05:53:24.552Z,14.30
2017-09-09T05:55:54.134Z,14.30
2017-09-09T05:58:23.003Z,14.30
2017-09-09T06:00:51.479Z,14.40
2017-09-09T06:08:18.675Z,14.40
2017-09-09T06:13:16.115Z,14.40
2017-09-09T06:15:44.215Z,14.40
2017-09-09T06:18:13.419Z,14.40
2017-09-09T06:20:41.514Z,14.50
2017-09-09T06:23:09.595Z,14.50
2017-09-09T06:25:37.702Z,14.50
2017-09-09T06:28:05.775Z,14.60
2017-09-09T06:30:34.247Z,14.60
2017-09-09T06:33:02.355Z,14.70
2017-09-09T06:35:30.432Z,14.70
2017-09-09T06:37:58.908Z,14.70
2017-09-09T06:40:27.011Z,14.80
2017-09-09T06:42:55.088Z,14.90
2017-09-09T06:45:23.559Z,14.90
2017-09-09T06:47:52.055Z,14.90
2017-09-09T06:50:20.134Z,14.80
2017-09-09T06:52:48.244Z,14.90
2017-09-09T06:55:17.089Z,14.90
2017-09-09T06:57:45.186Z,14.90
2017-09-09T07:00:14.034Z,14.90
2017-09-09T07:02:42.112Z,14.90
2017-09-09T07:05:10.224Z,14.90
2017-09-09T07:07:38.303Z,15.00
2017-09-09T07:10:06.775Z,15.20
2017-09-09T07:12:34.876Z,15.20
2017-09-09T07:15:04.087Z,15.20
2017-09-09T07:17:32.191Z,15.20
2017-09-09T07:20:00.687Z,15.30
2017-09-09T07:22:28.796Z,15.40
2017-09-09T07:24:57.666Z,15.40
2017-09-09T07:27:26.016Z,15.50
2017-09-09T07:29:55.586Z,15.60
2017-09-09T07:32:24.427Z,15.60
2017-09-09T07:37:22.308Z,15.80
2017-09-09T07:39:51.900Z,15.90
2017-09-09T07:42:19.963Z,16.00
2017-09-09T07:44:48.458Z,16.10
2017-09-09T07:47:16.938Z,16.10
2017-09-09T07:49:45.027Z,16.20
2017-09-09T07:52:14.616Z,16.20
2017-09-09T07:54:43.102Z,16.20
2017-09-09T07:57:11.576Z,16.30
2017-09-09T07:59:39.690Z,16.50
2017-09-09T08:04:37.099Z,16.50
2017-09-09T08:07:05.199Z,16.50
2017-09-09T08:12:02.639Z,16.60
2017-09-09T08:14:30.715Z,16.60
2017-09-09T08:16:58.791Z,16.70
2017-09-09T08:19:26.887Z,16.90
2017-09-09T08:21:55.386Z,17.10
2017-09-09T08:24:24.231Z,17.40
2017-09-09T08:26:52.303Z,17.60
2017-09-09T08:29:20.794Z,17.70
2017-09-09T08:31:48.895Z,17.60
2017-09-09T08:34:16.970Z,17.40
2017-09-09T08:36:45.083Z,17.20
2017-09-09T08:39:13.928Z,17.00
2017-09-09T08:41:41.998Z,17.00
2017-09-09T08:44:10.103Z,17.00
2017-09-09T08:46:38.179Z,16.80
2017-09-09T08:49:07.051Z,16.80
2017-09-09T08:51:35.138Z,16.80
2017-09-09T08:54:03.208Z,16.90
2017-09-09T08:56:31.719Z,17.20
2017-09-09T08:58:59.799Z,17.30
2017-09-09T09:01:28.277Z,17.30
2017-09-09T09:03:56.759Z,17.10
2017-09-09T09:06:24.839Z,17.10
2017-09-09T09:08:52.943Z,17.00
2017-09-09T09:11:21.019Z,17.10
2017-09-09T09:13:49.088Z,17.30
2017-09-09T09:16:17.963Z,17.40
2017-09-09T09:18:46.426Z,17.50
2017-09-09T09:21:14.507Z,17.40
2017-09-09T09:23:42.619Z,17.30
2017-09-09T09:26:11.459Z,17.20
2017-09-09T09:28:39.543Z,17.00
2017-09-09T09:31:07.651Z,17.00
2017-09-09T09:33:35.730Z,17.00
2017-09-09T09:36:03.807Z,17.20
2017-09-09T09:38:31.907Z,17.20
2017-09-09T09:41:00.746Z,17.20
2017-09-09T09:43:28.839Z,17.30
2017-09-09T09:45:56.934Z,17.30
2017-09-09T09:48:25.781Z,17.50
2017-09-09T09:50:53.867Z,17.60
2017-09-09T09:53:21.959Z,17.70
2017-09-09T09:55:50.040Z,17.70
2017-09-09T09:58:18.908Z,17.60
2017-09-09T10:00:46.983Z,17.50
2017-09-09T10:03:15.091Z,17.40
2017-09-09T10:05:43.559Z,17.30
2017-09-09T10:08:12.036Z,17.20
2017-09-09T10:10:40.523Z,17.30
2017-09-09T10:13:09.371Z,17.30
2017-09-09T10:15:37.463Z,17.50
2017-09-09T10:18:05.540Z,17.70
2017-09-09T10:20:33.631Z,17.80
2017-09-09T10:23:02.480Z,17.60
2017-09-09T10:25:30.587Z,17.50
2017-09-09T10:27:59.526Z,17.40
2017-09-09T10:30:28.355Z,17.40
2017-09-09T10:32:56.440Z,17.50
2017-09-09T10:35:25.276Z,17.60
2017-09-09T10:37:53.388Z,17.80
2017-09-09T10:40:21.468Z,18.00
2017-09-09T10:42:50.311Z,18.10
2017-09-09T10:45:18.802Z,18.20
2017-09-09T10:47:46.883Z,18.20
2017-09-09T10:50:14.979Z,18.40
2017-09-09T10:52:43.051Z,18.40
2017-09-09T10:55:11.152Z,18.30
2017-09-09T10:57:40.019Z,18.10
2017-09-09T11:00:08.491Z,18.00
2017-09-09T11:02:36.563Z,17.90
2017-09-09T11:05:05.071Z,17.90
2017-09-09T11:07:33.539Z,18.20
2017-09-09T11:10:02.383Z,18.40
2017-09-09T11:12:30.487Z,18.30
2017-09-09T11:14:58.559Z,18.40
2017-09-09T11:17:26.667Z,18.20
2017-09-09T11:19:54.738Z,18.50
2017-09-09T11:22:22.827Z,18.80
2017-09-09T11:27:20.658Z,19.80
2017-09-09T11:29:48.731Z,20.50
2017-09-09T11:32:16.837Z,21.30
2017-09-09T11:34:45.679Z,20.90
2017-09-09T11:37:14.187Z,20.80
2017-09-09T11:39:42.269Z,20.10
2017-09-09T11:42:11.107Z,20.00
2017-09-09T11:44:39.207Z,19.90
2017-09-09T11:47:07.283Z,20.00
2017-09-09T11:49:35.383Z,20.10
2017-09-09T11:52:04.231Z,21.10
2017-09-09T11:54:32.337Z,22.10
2017-09-09T11:57:01.174Z,22.70
2017-09-09T11:59:29.294Z,22.80
2017-09-09T12:01:57.799Z,22.70
2017-09-09T12:04:25.884Z,22.70
2017-09-09T12:06:53.960Z,22.50
2017-09-09T12:09:22.072Z,21.60
2017-09-09T12:11:50.152Z,21.00
2017-09-09T12:14:18.228Z,21.10
2017-09-09T12:16:46.730Z,21.70
2017-09-09T12:19:15.595Z,22.60
2017-09-09T12:21:43.675Z,22.80
2017-09-09T12:24:11.770Z,22.70
2017-09-09T12:26:40.635Z,22.90
2017-09-09T12:29:08.719Z,23.00
2017-09-09T12:31:37.591Z,23.50
2017-09-09T12:34:05.671Z,23.10
2017-09-09T12:36:34.519Z,22.90
2017-09-09T12:39:02.618Z,22.10
2017-09-09T12:41:30.755Z,21.80
2017-09-09T12:43:58.839Z,21.40
2017-09-09T12:46:26.927Z,21.60
2017-09-09T12:48:55.035Z,21.50
2017-09-09T12:51:23.874Z,21.20
2017-09-09T12:53:51.960Z,21.40
2017-09-09T12:56:20.458Z,21.50
2017-09-09T12:58:48.931Z,21.30
2017-09-09T13:01:17.775Z,21.40
2017-09-09T13:03:46.643Z,21.30
2017-09-09T13:06:15.489Z,21.20
2017-09-09T13:08:43.562Z,21.30
2017-09-09T13:11:11.680Z,21.30
2017-09-09T13:13:40.547Z,21.30
2017-09-09T13:16:09.024Z,21.00
2017-09-09T13:18:37.123Z,20.70
2017-09-09T13:21:05.992Z,20.70
2017-09-09T13:23:34.091Z,20.70
2017-09-09T13:26:02.546Z,20.60
2017-09-09T13:28:30.647Z,20.60
2017-09-09T13:30:59.521Z,20.10
2017-09-09T13:33:27.590Z,20.10
2017-09-09T13:35:56.438Z,20.40
2017-09-09T13:38:24.522Z,20.60
2017-09-09T13:40:53.362Z,20.30
2017-09-09T13:43:22.251Z,20.40
2017-09-09T13:45:51.463Z,20.50
2017-09-09T13:48:19.566Z,20.40
2017-09-09T13:50:47.647Z,20.40
2017-09-09T13:53:15.727Z,20.20
2017-09-09T13:55:43.828Z,20.10
2017-09-09T13:58:12.672Z,20.30
2017-09-09T14:00:41.541Z,20.10
2017-09-09T14:03:10.036Z,19.90
2017-09-09T14:05:38.136Z,19.80
2017-09-09T14:08:06.223Z,19.80
2017-09-09T14:10:34.323Z,19.90
2017-09-09T14:13:03.166Z,19.90
2017-09-09T14:15:31.244Z,19.80
2017-09-09T14:17:59.355Z,20.00
2017-09-09T14:20:28.187Z,20.00
2017-09-09T14:22:56.668Z,20.00
2017-09-09T14:25:24.762Z,19.90
2017-09-09T14:27:52.912Z,19.80
2017-09-09T14:30:20.960Z,19.80
2017-09-09T14:32:49.138Z,19.70
2017-09-09T14:35:17.232Z,19.60
2017-09-09T14:37:45.343Z,19.70
2017-09-09T14:40:13.420Z,19.70
2017-09-09T14:42:41.511Z,19.60
2017-09-09T14:45:10.371Z,19.50
2017-09-09T14:47:38.455Z,19.60
2017-09-09T14:50:06.527Z,19.70
2017-09-09T14:52:35.411Z,19.80
2017-09-09T14:55:03.495Z,19.70
2017-09-09T14:57:31.572Z,19.70
2017-09-09T14:59:59.684Z,19.90
2017-09-09T15:02:28.528Z,19.90
2017-09-09T15:04:57.391Z,19.90
2017-09-09T15:07:25.482Z,19.60
2017-09-09T15:12:23.436Z,19.40
2017-09-09T15:14:51.540Z,19.30
2017-09-09T15:17:21.127Z,19.30
2017-09-09T15:19:49.203Z,19.30
2017-09-09T15:22:17.309Z,19.20
2017-09-09T15:24:46.523Z,19.10
2017-09-09T15:27:14.627Z,18.90
2017-09-09T15:29:42.695Z,18.70
2017-09-09T15:32:10.794Z,18.50
2017-09-09T15:34:38.888Z,18.40
2017-09-09T15:37:07.755Z,18.40
2017-09-09T15:39:35.864Z,18.40
2017-09-09T15:42:04.706Z,18.30
2017-09-09T15:44:32.787Z,18.30
2017-09-09T15:47:01.651Z,18.30
2017-09-09T15:49:29.744Z,18.30
2017-09-09T15:51:57.872Z,18.30
2017-09-09T15:54:26.719Z,18.10
2017-09-09T15:56:54.799Z,18.10
2017-09-09T15:59:22.908Z,18.10
2017-09-09T16:01:51.380Z,18.10
2017-09-09T16:04:20.227Z,18.00
2017-09-09T16:06:48.346Z,17.80
2017-09-09T16:09:17.196Z,17.90
2017-09-09T16:11:45.275Z,17.80
2017-09-09T16:14:13.383Z,17.80
2017-09-09T16:16:42.227Z,17.80
2017-09-09T16:19:10.303Z,17.70
2017-09-09T16:21:38.399Z,17.70
2017-09-09T16:24:07.240Z,17.60
2017-09-09T16:26:36.751Z,17.50
2017-09-09T16:29:05.219Z,17.40
2017-09-09T16:31:33.322Z,17.30
2017-09-09T16:34:01.417Z,17.40
2017-09-09T16:36:30.262Z,17.30
2017-09-09T16:38:58.358Z,17.20
2017-09-09T16:41:26.455Z,17.10
2017-09-09T16:46:23.904Z,17.10
2017-09-09T16:48:52.010Z,17.10
2017-09-09T16:51:20.859Z,17.00
2017-09-09T16:53:48.956Z,17.00
2017-09-09T16:56:17.123Z,17.00
2017-09-09T16:58:45.194Z,17.00
2017-09-09T17:01:13.278Z,17.00
2017-09-09T17:03:41.379Z,17.00
2017-09-09T17:06:09.451Z,17.00
2017-09-09T17:08:37.541Z,17.00
2017-09-09T17:11:05.630Z,17.00
2017-09-09T17:13:33.735Z,16.90
2017-09-09T17:16:01.816Z,16.90
2017-09-09T17:18:30.663Z,16.90
2017-09-09T17:20:58.755Z,16.80
2017-09-09T17:23:26.855Z,16.80
2017-09-09T17:25:56.442Z,16.80
2017-09-09T17:28:24.547Z,16.80
2017-09-09T17:30:52.625Z,16.80
2017-09-09T17:33:20.703Z,16.70
2017-09-09T17:35:48.811Z,16.70
2017-09-09T17:38:16.901Z,16.60
2017-09-09T17:40:45.020Z,16.50
2017-09-09T17:43:13.103Z,16.50
2017-09-09T17:45:41.579Z,16.60
2017-09-09T17:48:09.692Z,16.60
2017-09-09T17:50:37.772Z,16.60
2017-09-09T17:53:05.851Z,16.60
2017-09-09T17:55:33.942Z,16.50
2017-09-09T17:58:02.816Z,16.50
2017-09-09T18:00:30.903Z,16.50
2017-09-09T18:02:59.403Z,16.50
2017-09-09T18:05:27.487Z,16.50
2017-09-09T18:07:56.706Z,16.50
2017-09-09T18:10:24.811Z,16.40
2017-09-09T18:12:52.882Z,16.40
2017-09-09T18:15:20.963Z,16.40
2017-09-09T18:17:49.822Z,16.30
2017-09-09T18:20:17.898Z,16.40
2017-09-09T18:22:46.771Z,16.30
2017-09-09T18:25:14.850Z,16.40
2017-09-09T18:27:43.020Z,16.30
2017-09-09T18:30:11.851Z,16.40
2017-09-09T18:32:39.927Z,16.40
2017-09-09T18:35:08.398Z,16.30
2017-09-09T18:37:36.507Z,16.30
2017-09-09T18:40:04.998Z,16.30
2017-09-09T18:42:34.203Z,16.20
2017-09-09T18:45:02.300Z,16.20
2017-09-09T18:47:30.375Z,16.20
2017-09-09T18:49:58.468Z,16.10
2017-09-09T18:52:26.543Z,16.20
2017-09-09T18:54:54.635Z,16.20
2017-09-09T18:57:23.132Z,16.10
2017-09-09T18:59:51.627Z,16.20
2017-09-09T19:02:19.719Z,16.10
2017-09-09T19:04:47.795Z,16.10
2017-09-09T19:07:15.903Z,16.00
2017-09-09T19:12:14.119Z,15.90
2017-09-09T19:14:42.975Z,15.90
2017-09-09T19:17:11.055Z,15.90
2017-09-09T19:19:40.304Z,15.90
2017-09-09T19:22:08.780Z,15.80
2017-09-09T19:24:36.860Z,15.80
2017-09-09T19:27:04.967Z,15.70
2017-09-09T19:29:33.050Z,15.70
2017-09-09T19:32:01.520Z,15.70
2017-09-09T19:34:29.615Z,15.70
2017-09-09T19:36:58.091Z,15.70
2017-09-09T19:39:26.954Z,15.70
2017-09-09T19:41:55.032Z,15.70
2017-09-09T19:44:23.136Z,15.70
2017-09-09T19:46:51.607Z,15.70
2017-09-09T19:49:20.087Z,15.70
2017-09-09T19:51:48.183Z,15.70
2017-09-09T19:54:16.255Z,15.70
2017-09-09T19:56:44.355Z,15.80
2017-09-09T19:59:12.471Z,15.70
2017-09-09T20:01:40.552Z,15.80
2017-09-09T20:04:09.392Z,15.80
2017-09-09T20:06:37.505Z,15.70
2017-09-09T20:09:05.579Z,15.80
2017-09-09T20:11:33.659Z,15.70
2017-09-09T20:14:02.523Z,15.70
2017-09-09T20:16:30.611Z,15.60
2017-09-09T20:18:58.712Z,15.60
2017-09-09T20:21:26.814Z,15.60
2017-09-09T20:23:54.883Z,15.60
2017-09-09T20:26:22.987Z,15.60
2017-09-09T20:28:51.464Z,15.70
2017-09-09T20:31:19.543Z,15.80
2017-09-09T20:33:47.645Z,15.70
2017-09-09T20:36:16.487Z,15.70
2017-09-09T20:38:44.595Z,15.80
2017-09-09T20:41:12.671Z,15.90
2017-09-09T20:43:41.139Z,16.00
2017-09-09T20:46:09.251Z,15.90
2017-09-09T20:48:37.326Z,15.90
2017-09-09T20:51:05.404Z,15.90
2017-09-09T20:53:33.523Z,15.90
2017-09-09T20:56:01.603Z,15.80
2017-09-09T20:58:30.078Z,15.80
2017-09-09T21:00:58.187Z,15.70
2017-09-09T21:03:26.266Z,15.70
2017-09-09T21:05:54.758Z,15.90
2017-09-09T21:08:22.839Z,15.80
2017-09-09T21:10:51.684Z,15.70
2017-09-09T21:13:20.547Z,15.70
2017-09-09T21:15:48.623Z,15.80
2017-09-09T21:18:16.729Z,15.60
2017-09-09T21:20:45.600Z,15.60
2017-09-09T21:23:13.684Z,15.50
2017-09-09T21:25:41.759Z,15.40
2017-09-09T21:28:10.255Z,15.30
2017-09-09T21:30:39.119Z,15.10
2017-09-09T21:33:07.204Z,14.90
2017-09-09T21:35:36.459Z,14.80
2017-09-09T21:38:04.527Z,14.80
2017-09-09T21:40:32.628Z,14.60
2017-09-09T21:43:01.469Z,14.60
2017-09-09T21:45:29.583Z,14.60
2017-09-09T21:47:57.662Z,14.60
2017-09-09T21:50:25.734Z,14.70
2017-09-09T21:52:54.232Z,14.70
2017-09-09T21:55:23.447Z,14.70
2017-09-09T21:57:52.324Z,14.80
2017-09-09T22:00:21.192Z,14.70
2017-09-09T22:02:49.267Z,14.70
2017-09-09T22:05:18.513Z,14.80
2017-09-09T22:07:46.595Z,14.70
2017-09-09T22:10:16.174Z,14.60
2017-09-09T22:12:45.049Z,14.40
2017-09-09T22:15:13.895Z,14.50
2017-09-09T22:17:41.967Z,14.50
2017-09-09T22:20:10.059Z,14.60
2017-09-09T22:22:38.143Z,14.60
2017-09-09T22:25:06.239Z,14.70
2017-09-09T22:27:34.311Z,14.70
2017-09-09T22:30:03.575Z,14.70
2017-09-09T22:32:31.673Z,14.70
2017-09-09T22:37:29.106Z,14.60
2017-09-09T22:39:57.210Z,14.60
2017-09-09T22:42:25.291Z,14.50
2017-09-09T22:44:54.507Z,14.30
2017-09-09T22:47:23.367Z,14.40
2017-09-09T22:52:21.227Z,14.50
2017-09-09T22:54:49.310Z,14.60
2017-09-09T22:57:17.382Z,14.60
2017-09-09T22:59:45.487Z,14.70
2017-09-09T23:02:14.324Z,14.60
2017-09-09T23:04:42.434Z,14.60
2017-09-09T23:09:39.855Z,14.50
2017-09-09T23:12:08.167Z,14.30
2017-09-09T23:14:36.239Z,14.30
2017-09-09T23:17:04.322Z,14.40
2017-09-09T23:19:32.811Z,14.50
2017-09-09T23:22:01.661Z,14.40
2017-09-09T23:24:29.767Z,14.30
2017-09-09T23:26:57.838Z,14.30
2017-09-09T23:29:25.919Z,14.30
2017-09-09T23:31:54.035Z,14.20
2017-09-09T23:34:22.526Z,14.10
2017-09-09T23:36:50.607Z,14.00
2017-09-09T23:39:19.493Z,14.10
2017-09-09T23:41:47.572Z,14.20
2017-09-09T23:44:15.652Z,14.30
2017-09-09T23:46:43.760Z,14.20
2017-09-09T23:49:12.608Z,14.00
2017-09-09T23:51:40.696Z,14.10
2017-09-09T23:54:08.795Z,14.00
2017-09-09T23:56:37.643Z,13.90
2017-09-09T23:59:05.720Z,14.00
